Terminal Aerodrome Forecast
Issued by NWS Lake Charles, LA

Home | Current Version | Previous Version | Text Only | Print | Product List | Glossary On
Versions: 1 2 3 4 5 6 7 8 9 10 11 12 13 14 15 16
000
FTUS44 KLCH 251720
TAFARA
TAF
KARA 251720Z 2518/2618 19013G20KT P6SM FEW035
     FM252000 18013G19KT P6SM BKN035
     FM260500 17012KT P6SM BKN015
     FM261500 19019G26KT P6SM BKN025=

USA.gov is the U.S. government's official web portal to all federal, state and local government web resources and services.